Dades meteomassalio
Diari Summary for Maig 19, 2017 Units:  Metric    English   Both
« Previous Day
Next Day »
Diari Semanal Mensual Anual Personalitzat
  Maxima: Minima: Mijana:
Temperatura: -17.8 °C -12.6 °C -9.7 °C
Rosada: -17.8 °C -14.6 °C -14.1 °C
Humitat: Humidity % 39 % 61 %
Velocitat del vent: 0 km/h 0 km/h 31.4 km/h
Racha vent: 0 km/h - -
Vent:- - WNW
Pressio: 0 hPa 34486.4 hPa -
Pluja: 0 mm    
Historical Graphs
 
 
Tabular Data for Maig 19, 2017
Time Temperature Dew Point Pressure Wind Wind Speed Wind Gust Humidity Rainfall Rate (Hourly) solar Conditions
-17.8 °C -17.8 °C 0 hPa Calm     Humidity % 0 mm SolarRadiationWatts/m^2 W/m2 Conditions
00:00 -11.7 °C -13.8 °C 34486.4 hPa WNW 56.6 km/h 56.6 km/h 77 % 0 mm 0.0 W/m2 RA
00:05 -11.6 °C -13.9 °C 34486.4 hPa WNW 53.6 km/h 53.6 km/h 76 % 0 mm 0.0 W/m2 CLR
00:10 -11.6 °C -13.8 °C 34486.4 hPa WNW 47.6 km/h 47.6 km/h 76 % 0 mm 0.0 W/m2 CLR
00:15 -11.6 °C -13.8 °C 34486.4 hPa West 50.7 km/h 50.7 km/h 76 % 0 mm 0.0 W/m2 CLR
00:20 -11.6 °C -13.8 °C 34486.4 hPa West 35.7 km/h 35.7 km/h 76 % 0 mm 0.0 W/m2 CLR
00:25 -11.7 °C -13.8 °C 34486.4 hPa WNW 32.8 km/h 32.8 km/h 77 % 0 mm 0.0 W/m2 CLR
00:30 -11.6 °C -13.8 °C 34486.4 hPa West 41.7 km/h 41.7 km/h 77 % 0 mm 0.0 W/m2 CLR
00:35 -11.7 °C -13.8 °C 34496.6 hPa West 41.7 km/h 41.7 km/h 77 % 0 mm 0.0 W/m2 CLR
00:40 -11.7 °C -13.9 °C 34496.6 hPa NNW 47.6 km/h 47.6 km/h 76 % 0 mm 0.0 W/m2 CLR
00:45 -11.7 °C -13.9 °C 34496.6 hPa WNW 32.8 km/h 32.8 km/h 76 % 0 mm 0.0 W/m2 CLR
00:50 -11.7 °C -13.9 °C 34496.6 hPa WNW 38.8 km/h 38.8 km/h 76 % 0 mm 0.0 W/m2 CLR
00:55 -11.7 °C -13.9 °C 34496.6 hPa WNW 59.5 km/h 59.5 km/h 76 % 0 mm 0.0 W/m2 CLR
01:00 -11.7 °C -13.9 °C 34496.6 hPa West 44.7 km/h 44.7 km/h 76 % 0 mm 0.0 W/m2 CLR
01:05 -11.7 °C -13.9 °C 34496.6 hPa West 50.7 km/h 50.7 km/h 76 % 0 mm 0.0 W/m2 CLR
01:10 -11.7 °C -13.9 °C 34496.6 hPa West 44.7 km/h 44.7 km/h 76 % 0 mm 0.0 W/m2 CLR
01:11 -11.6 °C -13.9 °C 34496.6 hPa West 44.7 km/h 44.7 km/h 76 % 0 mm 0.0 W/m2 CLR
01:16 -11.7 °C -13.9 °C 34496.6 hPa West 50.7 km/h 50.7 km/h 76 % 0 mm 0.0 W/m2 CLR
01:21 -11.7 °C -13.9 °C 34496.6 hPa WNW 50.7 km/h 50.7 km/h 76 % 0 mm 0.0 W/m2 CLR
01:26 -11.8 °C -14 °C 34496.6 hPa WNW 47.6 km/h 47.6 km/h 76 % 0 mm 0.0 W/m2 CLR
01:31 -11.8 °C -13.9 °C 34496.6 hPa WNW 35.7 km/h 35.7 km/h 77 % 0 mm 0.0 W/m2 CLR
01:36 -11.8 °C -14 °C 34496.6 hPa West 29.8 km/h 29.8 km/h 77 % 0 mm 0.0 W/m2 CLR
01:41 -11.9 °C -14.1 °C 34496.6 hPa WNW 29.8 km/h 29.8 km/h 77 % 0 mm 0.0 W/m2 CLR
01:46 -11.9 °C -14 °C 34496.6 hPa West 32.8 km/h 32.8 km/h 78 % 0 mm 0.0 W/m2 CLR
01:51 -11.9 °C -14 °C 34496.6 hPa NW 31.1 km/h 31.1 km/h 78 % 0 mm 0.0 W/m2 CLR
01:56 -11.9 °C -14 °C 34496.6 hPa WNW 29.8 km/h 29.8 km/h 78 % 0 mm 0.0 W/m2 CLR
01:57 -11.9 °C -14.1 °C 34496.6 hPa WNW 29.8 km/h 29.8 km/h 77 % 0 mm 0.0 W/m2 CLR
02:02 -11.9 °C -14.1 °C 34496.6 hPa WNW 29.8 km/h 29.8 km/h 77 % 0 mm 0.0 W/m2 CLR
02:07 -11.9 °C -14.1 °C 34496.6 hPa WNW 20.9 km/h 20.9 km/h 77 % 0 mm 0.0 W/m2 CLR
02:12 -11.9 °C -14.1 °C 34496.6 hPa West 23.8 km/h 23.8 km/h 77 % 0 mm 0.0 W/m2 CLR
02:17 -11.9 °C -14.1 °C 34496.6 hPa WNW 20.9 km/h 20.9 km/h 77 % 0 mm 0.0 W/m2 CLR
02:22 -11.9 °C -14.1 °C 34496.6 hPa West 29.8 km/h 29.8 km/h 77 % 0 mm 0.0 W/m2 CLR
02:27 -11.9 °C -14.1 °C 34496.6 hPa WNW 29.8 km/h 29.8 km/h 77 % 0 mm 0.0 W/m2 CLR
02:32 -11.9 °C -14.1 °C 34496.6 hPa NW 23.8 km/h 23.8 km/h 77 % 0 mm 0.0 W/m2 CLR
02:37 -11.9 °C -14.1 °C 34496.6 hPa West 18.2 km/h 18.2 km/h 77 % 0 mm 0.0 W/m2 CLR
02:42 -11.9 °C -14.2 °C 34496.6 hPa WSW 29.8 km/h 29.8 km/h 76 % 0 mm 0.0 W/m2 CLR
02:47 -11.9 °C -14.2 °C 34496.6 hPa WNW 26.9 km/h 26.9 km/h 76 % 0 mm 0.0 W/m2 CLR
02:52 -12 °C -14.2 °C 34496.6 hPa WNW 29.8 km/h 29.8 km/h 76 % 0 mm 0.0 W/m2 CLR
02:57 -11.9 °C -14.2 °C 34496.6 hPa WNW 36.2 km/h 36.2 km/h 76 % 0 mm 0.0 W/m2 CLR
03:02 -11.9 °C -14.2 °C 34486.4 hPa WNW 50.7 km/h 50.7 km/h 76 % 0 mm 0.0 W/m2 CLR
03:07 -11.9 °C -14.2 °C 34496.6 hPa WNW 47.6 km/h 47.6 km/h 76 % 0 mm 0.0 W/m2 CLR
03:12 -11.9 °C -14.2 °C 34496.6 hPa WNW 50.7 km/h 50.7 km/h 76 % 0 mm 0.0 W/m2 CLR
03:17 -11.9 °C -14.2 °C 34496.6 hPa NW 59.5 km/h 59.5 km/h 76 % 0 mm 0.0 W/m2 CLR
03:22 -11.9 °C -14.2 °C 34496.6 hPa WNW 44.7 km/h 44.7 km/h 76 % 0 mm 0.0 W/m2 CLR
03:27 -11.9 °C -14.2 °C 34496.6 hPa WNW 50.7 km/h 50.7 km/h 76 % 0 mm 0.0 W/m2 CLR
03:32 -11.9 °C -14.2 °C 34496.6 hPa WNW 38.8 km/h 38.8 km/h 76 % 0 mm 0.0 W/m2 CLR
03:37 -11.9 °C -14.2 °C 34496.6 hPa West 50.7 km/h 50.7 km/h 76 % 0 mm 0.0 W/m2 CLR
03:42 -12 °C -14.2 °C 34496.6 hPa West 38.8 km/h 38.8 km/h 76 % 0 mm 0.0 W/m2 CLR
03:47 -12 °C -14.1 °C 34496.6 hPa West 35.7 km/h 35.7 km/h 77 % 0 mm 0.0 W/m2 CLR
03:52 -12 °C -14.2 °C 34496.6 hPa WNW 41.7 km/h 41.7 km/h 76 % 0 mm 0.0 W/m2 CLR
03:57 -12.1 °C -14.2 °C 34496.6 hPa NW 44.1 km/h 44.1 km/h 77 % 0 mm 0.0 W/m2 CLR
04:02 -12.1 °C -14.2 °C 34510.1 hPa WNW 36.2 km/h 36.2 km/h 77 % 0 mm 0.0 W/m2 CLR
04:07 -12.1 °C -14.2 °C 34496.6 hPa WNW 29.8 km/h 29.8 km/h 77 % 0 mm 0.0 W/m2 CLR
04:12 -12.1 °C -14.2 °C 34510.1 hPa WNW 33.6 km/h 33.6 km/h 77 % 0 mm 0.0 W/m2 CLR
04:17 -12.1 °C -14.2 °C 34510.1 hPa WNW 25.9 km/h 25.9 km/h 77 % 0 mm 0.0 W/m2 CLR
04:22 -12.2 °C -14.3 °C 34510.1 hPa West 38.8 km/h 38.8 km/h 77 % 0 mm 0.0 W/m2 CLR
04:27 -12.2 °C -14.3 °C 34510.1 hPa WNW 29.8 km/h 29.8 km/h 77 % 0 mm 0.0 W/m2 CLR
04:32 -12.2 °C -14.3 °C 34510.1 hPa WNW 35.7 km/h 35.7 km/h 77 % 0 mm 0.0 W/m2 CLR
04:37 -12.2 °C -14.3 °C 34510.1 hPa West 29.8 km/h 29.8 km/h 77 % 0 mm 0.0 W/m2 CLR
04:42 -12.2 °C -14.3 °C 34510.1 hPa WNW 35.7 km/h 35.7 km/h 78 % 0 mm 0.0 W/m2 CLR
04:48 -12.2 °C -14.3 °C 34510.1 hPa West 32.8 km/h 32.8 km/h 78 % 0 mm 0.0 W/m2 CLR
04:53 -12.3 °C -14.3 °C 34520.3 hPa West 29.8 km/h 29.8 km/h 78 % 0 mm 0.0 W/m2 CLR
04:58 -12.3 °C -14.3 °C 34520.3 hPa WNW 29.8 km/h 29.8 km/h 78 % 0 mm 0.0 W/m2 CLR
05:03 -12.3 °C -14.3 °C 34520.3 hPa NW 29.8 km/h 29.8 km/h 78 % 0 mm 0.0 W/m2 CLR
05:08 -12.3 °C -14.3 °C 34520.3 hPa WNW 29.8 km/h 29.8 km/h 78 % 0 mm 0.0 W/m2 CLR
05:13 -12.3 °C -14.4 °C 34520.3 hPa WNW 35.7 km/h 35.7 km/h 77 % 0 mm 0.0 W/m2 CLR
05:18 -12.3 °C -14.3 °C 34520.3 hPa WNW 29.8 km/h 29.8 km/h 78 % 0 mm 0.0 W/m2 CLR
05:23 -12.3 °C -14.4 °C 34520.3 hPa WNW 29.8 km/h 29.8 km/h 77 % 0 mm 0.0 W/m2 CLR
05:28 -12.3 °C -14.4 °C 34520.3 hPa WNW 29.8 km/h 29.8 km/h 77 % 0 mm 0.0 W/m2 CLR
05:33 -12.3 °C -14.4 °C 34520.3 hPa WNW 23.8 km/h 23.8 km/h 77 % 0 mm 0.0 W/m2 CLR
05:38 -12.3 °C -14.4 °C 34520.3 hPa WNW 20.9 km/h 20.9 km/h 78 % 0 mm 0.0 W/m2 CLR
05:43 -12.4 °C -14.4 °C 34520.3 hPa WNW 23.8 km/h 23.8 km/h 78 % 0 mm 0.0 W/m2 CLR
05:48 -12.4 °C -14.4 °C 34520.3 hPa WNW 26.9 km/h 26.9 km/h 78 % 0 mm 0.0 W/m2 CLR
05:53 -12.4 °C -14.4 °C 34520.3 hPa WNW 32.8 km/h 32.8 km/h 78 % 0 mm 0.0 W/m2 CLR
05:58 -12.4 °C -14.5 °C 34520.3 hPa WNW 29.8 km/h 29.8 km/h 78 % 0 mm 0.0 W/m2 CLR
06:03 -12.4 °C -14.5 °C 34520.3 hPa WNW 38.8 km/h 38.8 km/h 78 % 0 mm 0.0 W/m2 CLR
06:08 -12.4 °C -14.6 °C 34520.3 hPa West 29.8 km/h 29.8 km/h 77 % 0 mm 0.0 W/m2 CLR
06:13 -12.4 °C -14.5 °C 34520.3 hPa WNW 32.8 km/h 32.8 km/h 78 % 0 mm 0.0 W/m2 CLR
06:18 -12.4 °C -14.6 °C 34520.3 hPa West 41.7 km/h 41.7 km/h 77 % 0 mm 0.0 W/m2 CLR
06:23 -12.4 °C -14.6 °C 34520.3 hPa West 41.7 km/h 41.7 km/h 77 % 0 mm 0.0 W/m2 CLR
06:28 -12.4 °C -14.6 °C 34533.8 hPa West 41.7 km/h 41.7 km/h 77 % 0 mm 0.0 W/m2 OVC
06:33 -12.5 °C -14.6 °C 34533.8 hPa WNW 38.8 km/h 38.8 km/h 78 % 0 mm 0.0 W/m2 OVC
06:38 -12.4 °C -14.5 °C 34533.8 hPa WNW 38.8 km/h 38.8 km/h 78 % 0 mm 5.0 W/m2 OVC
06:43 -12.5 °C -14.6 °C 34544 hPa WNW 29.8 km/h 29.8 km/h 78 % 0 mm 7.0 W/m2 BKN
06:48 -12.6 °C -14.6 °C 34544 hPa West 29.8 km/h 29.8 km/h 78 % 0 mm 9.0 W/m2 BKN
06:53 -12.5 °C -14.6 °C 34544 hPa WNW 35.7 km/h 35.7 km/h 78 % 0 mm 11.0 W/m2 BKN
06:58 -12.5 °C -14.6 °C 34544 hPa West 29.8 km/h 29.8 km/h 78 % 0 mm 12.0 W/m2 BKN
07:03 -12.6 °C -14.6 °C 34544 hPa West 29.8 km/h 29.8 km/h 78 % 0 mm 14.0 W/m2 BKN
07:08 -12.5 °C -14.6 °C 34544 hPa West 29.8 km/h 29.8 km/h 77 % 0 mm 18.0 W/m2 BKN
07:13 -12.4 °C -14.6 °C 34554.1 hPa WNW 32.8 km/h 32.8 km/h 77 % 0 mm 23.0 W/m2 BKN
07:18 -12.4 °C -14.6 °C 34554.1 hPa WNW 20.9 km/h 20.9 km/h 76 % 0 mm 28.0 W/m2 BKN
07:23 -12.3 °C -14.6 °C 34554.1 hPa WNW 26.9 km/h 26.9 km/h 76 % 0 mm 46.0 W/m2 SCT
07:28 -12.3 °C -14.6 °C 34554.1 hPa WNW 29.8 km/h 29.8 km/h 76 % 0 mm 60.0 W/m2 SCT
07:33 -12.3 °C -14.6 °C 34567.7 hPa WNW 23.3 km/h 23.3 km/h 76 % 0 mm 72.0 W/m2 FEW
07:38 -12.3 °C -14.5 °C 34567.7 hPa WNW 20.8 km/h 20.8 km/h 76 % 0 mm 86.0 W/m2 FEW
07:43 -12.2 °C -14.6 °C 34567.7 hPa WNW 23.8 km/h 23.8 km/h 75 % 0 mm 100.0 W/m2 CLR
07:48 -12.1 °C -14.5 °C 34567.7 hPa WNW 41.4 km/h 41.4 km/h 75 % 0 mm 121.0 W/m2 CLR
07:53 -12.1 °C -14.5 °C 34567.7 hPa WNW 47.6 km/h 47.6 km/h 74 % 0 mm 137.0 W/m2 CLR
07:58 -11.9 °C -14.4 °C 34567.7 hPa WNW 29.8 km/h 29.8 km/h 74 % 0 mm 155.0 W/m2 CLR
07:59 -11.9 °C -14.4 °C 34567.7 hPa NW 32.8 km/h 32.8 km/h 74 % 0 mm 158.0 W/m2 CLR
08:04 -11.9 °C -14.5 °C 34567.7 hPa WNW 26.9 km/h 26.9 km/h 73 % 0 mm 176.0 W/m2 CLR
08:09 -11.8 °C -14.5 °C 34567.7 hPa WNW 38.8 km/h 38.8 km/h 72 % 0 mm 199.0 W/m2 CLR
08:14 -11.7 °C -14.3 °C 34567.7 hPa WNW 47.6 km/h 47.6 km/h 73 % 0 mm 216.0 W/m2 CLR
08:19 -11.7 °C -14.4 °C 34567.7 hPa NW 41.7 km/h 41.7 km/h 72 % 0 mm 232.0 W/m2 CLR
08:24 -11.6 °C -14.3 °C 34577.8 hPa NW 44.7 km/h 44.7 km/h 72 % 0 mm 251.0 W/m2 CLR
08:29 -11.6 °C -14.4 °C 34577.8 hPa NW 44.7 km/h 44.7 km/h 71 % 0 mm 267.0 W/m2 CLR
08:34 -11.5 °C -14.3 °C 34567.7 hPa NW 41.7 km/h 41.7 km/h 71 % 0 mm 281.0 W/m2 CLR
08:39 -11.4 °C -14.3 °C 34577.8 hPa WNW 47.6 km/h 47.6 km/h 70 % 0 mm 297.0 W/m2 CLR
08:44 -11.4 °C -14.3 °C 34577.8 hPa NW 44.7 km/h 44.7 km/h 70 % 0 mm 315.0 W/m2 CLR
08:49 -11.3 °C -14.4 °C 34577.8 hPa WNW 50.7 km/h 50.7 km/h 69 % 0 mm 330.0 W/m2 CLR
08:55 -11.3 °C -14.3 °C 34577.8 hPa WNW 47.6 km/h 47.6 km/h 69 % 0 mm 346.0 W/m2 CLR
09:00 -11.2 °C -14.2 °C 34577.8 hPa WNW 50.7 km/h 50.7 km/h 70 % 0 mm 360.0 W/m2 CLR
09:05 -11.2 °C -14.3 °C 34577.8 hPa WNW 50.7 km/h 50.7 km/h 69 % 0 mm 378.0 W/m2 CLR
09:10 -11.2 °C -14.1 °C 34577.8 hPa WNW 44.7 km/h 44.7 km/h 70 % 0 mm 394.0 W/m2 CLR
09:15 -11.1 °C -14.1 °C 34577.8 hPa West 35.7 km/h 35.7 km/h 69 % 0 mm 408.0 W/m2 CLR
09:20 -10.9 °C -14 °C 34577.8 hPa NNW 44.1 km/h 44.1 km/h 69 % 0 mm 424.0 W/m2 CLR
09:25 -10.9 °C -14.1 °C 34577.8 hPa NW 47.6 km/h 47.6 km/h 68 % 0 mm 439.0 W/m2 CLR
09:30 -10.9 °C -14.1 °C 34577.8 hPa NW 38.8 km/h 38.8 km/h 68 % 0 mm 457.0 W/m2 CLR
09:35 -10.7 °C -13.9 °C 34577.8 hPa WNW 41.7 km/h 41.7 km/h 68 % 0 mm 473.0 W/m2 CLR
09:40 -10.7 °C -14.1 °C 34577.8 hPa WNW 44.7 km/h 44.7 km/h 66 % 0 mm 489.0 W/m2 CLR
09:45 -10.6 °C -14.1 °C 34577.8 hPa WNW 29.8 km/h 29.8 km/h 66 % 0 mm 503.0 W/m2 CLR
09:50 -10.6 °C -14.1 °C 34577.8 hPa WNW 29.8 km/h 31.1 km/h 65 % 0 mm 517.0 W/m2 CLR
09:55 -10.4 °C -14.2 °C 34577.8 hPa WNW 29.8 km/h 29.8 km/h 64 % 0 mm 534.0 W/m2 CLR
10:00 -10.3 °C -14.1 °C 34577.8 hPa WNW 32.8 km/h 32.8 km/h 64 % 0 mm 548.0 W/m2 CLR
10:05 -10.2 °C -14.1 °C 34577.8 hPa WNW 38.8 km/h 38.8 km/h 63 % 0 mm 561.0 W/m2 CLR
10:07 -10.2 °C -14.1 °C 34577.8 hPa NW 29.8 km/h 29.8 km/h 63 % 0 mm 570.0 W/m2 CLR
10:12 -10.2 °C -14.1 °C 34577.8 hPa NNW 35.7 km/h 35.7 km/h 62 % 0 mm 584.0 W/m2 CLR
10:17 -10.1 °C -14.1 °C 34577.8 hPa NW 41.7 km/h 41.7 km/h 62 % 0 mm 599.0 W/m2 CLR
10:22 -10.1 °C -14.1 °C 34577.8 hPa NW 36.2 km/h 36.2 km/h 61 % 0 mm 612.0 W/m2 CLR
10:27 -10 °C -14 °C 34577.8 hPa NNW 35.7 km/h 35.7 km/h 62 % 0 mm 628.0 W/m2 CLR
10:32 -9.9 °C -14.1 °C 34577.8 hPa NW 44.7 km/h 44.7 km/h 61 % 0 mm 642.0 W/m2 CLR
10:37 -9.9 °C -14.3 °C 34577.8 hPa NW 33.6 km/h 35.4 km/h 59 % 0 mm 657.0 W/m2 CLR
10:42 -9.9 °C -14.3 °C 34577.8 hPa WNW 50.7 km/h 50.7 km/h 59 % 0 mm 670.0 W/m2 CLR
10:47 -9.9 °C -14.3 °C 34577.8 hPa NW 65.5 km/h 65.5 km/h 59 % 0 mm 682.0 W/m2 CLR
10:52 -9.8 °C -14.3 °C 34591.4 hPa NW 50.7 km/h 50.7 km/h 58 % 0 mm 696.0 W/m2 CLR
10:57 -9.8 °C -14.1 °C 34577.8 hPa North 41.7 km/h 41.7 km/h 60 % 0 mm 710.0 W/m2 CLR
11:02 -9.7 °C -14.3 °C 34591.4 hPa NNW 50.7 km/h 50.7 km/h 58 % 0 mm 722.0 W/m2 CLR
11:07 -9.7 °C -14.1 °C 34591.4 hPa NNW 41.7 km/h 41.7 km/h 59 % 0 mm 735.0 W/m2 CLR
11:12 -9.6 °C -14.1 °C 34591.4 hPa NW 41.4 km/h 41.4 km/h 58 % 0 mm 745.0 W/m2 CLR
11:17 -9.6 °C -13.9 °C 34591.4 hPa West 50.7 km/h 50.7 km/h 59 % 0 mm 756.0 W/m2 CLR
11:22 -9.5 °C -13.9 °C 34591.4 hPa NW 41.7 km/h 41.7 km/h 59 % 0 mm 772.0 W/m2 CLR
11:27 -9.3 °C -13.6 °C 34591.4 hPa NW 38.8 km/h 38.8 km/h 60 % 0 mm 779.0 W/m2 CLR
11:32 -9.2 °C -13.6 °C 34591.4 hPa NW 32.8 km/h 32.8 km/h 59 % 0 mm 788.0 W/m2 CLR
11:37 -9.1 °C -13.7 °C 34591.4 hPa WNW 38.8 km/h 38.8 km/h 58 % 0 mm 800.0 W/m2 CLR
11:42 -9.1 °C -13.8 °C 34591.4 hPa NW 50.7 km/h 50.7 km/h 57 % 0 mm 814.0 W/m2 CLR
11:47 -9.2 °C -13.8 °C 34591.4 hPa NW 32.8 km/h 32.8 km/h 58 % 0 mm 823.0 W/m2 CLR
11:48 -9.2 °C -13.8 °C 34591.4 hPa WNW 32.8 km/h 32.8 km/h 58 % 0 mm 823.0 W/m2 CLR
11:53 -8.9 °C -13.3 °C 34591.4 hPa NW 38.8 km/h 38.8 km/h 60 % 0 mm 838.0 W/m2 CLR
11:58 -8.9 °C -13.4 °C 34591.4 hPa West 23.3 km/h 23.3 km/h 59 % 0 mm 849.0 W/m2 CLR
12:03 -8.9 °C -13.3 °C 34591.4 hPa NNW 50.7 km/h 50.7 km/h 59 % 0 mm 900.0 W/m2 CLR
12:08 -8.9 °C -13.5 °C 34591.4 hPa NNW 38.8 km/h 38.8 km/h 58 % 0 mm 861.0 W/m2 CLR
12:13 -8.8 °C -13.8 °C 34591.4 hPa NW 44.7 km/h 44.7 km/h 55 % 0 mm 872.0 W/m2 CLR
12:18 -8.8 °C -13.9 °C 34591.4 hPa WNW 38.8 km/h 38.8 km/h 55 % 0 mm 886.0 W/m2 CLR
12:23 -8.8 °C -13.4 °C 34591.4 hPa NW 44.1 km/h 44.1 km/h 58 % 0 mm 898.0 W/m2 CLR
12:28 -8.9 °C -13.9 °C 34577.8 hPa West 33.6 km/h 33.6 km/h 55 % 0 mm 907.0 W/m2 CLR
12:33 -8.8 °C -13.8 °C 34591.4 hPa NNW 50.7 km/h 50.7 km/h 55 % 0 mm 926.0 W/m2 CLR
12:38 -8.8 °C -13.8 °C 34577.8 hPa WNW 35.7 km/h 35.7 km/h 55 % 0 mm 918.0 W/m2 CLR
12:43 -8.6 °C -13.7 °C 34577.8 hPa WNW 44.7 km/h 44.7 km/h 55 % 0 mm 935.0 W/m2 CLR
12:48 -8.5 °C -13.6 °C 34577.8 hPa NW 44.7 km/h 44.7 km/h 55 % 0 mm 990.0 W/m2 CLR
12:53 -8.6 °C -13.8 °C 34577.8 hPa WNW 32.8 km/h 32.8 km/h 54 % 0 mm 944.0 W/m2 CLR
12:58 -8.5 °C -13.6 °C 34577.8 hPa NW 47.6 km/h 47.6 km/h 55 % 0 mm 949.0 W/m2 CLR
13:03 -8.4 °C -13.7 °C 34577.8 hPa NW 29.8 km/h 29.8 km/h 54 % 0 mm 944.0 W/m2 CLR
13:08 -8.4 °C -13.7 °C 34577.8 hPa NW 44.7 km/h 44.7 km/h 54 % 0 mm 960.0 W/m2 CLR
13:13 -8.4 °C -13.6 °C 34567.7 hPa West 35.7 km/h 35.7 km/h 54 % 0 mm 956.0 W/m2 CLR
13:18 -8.3 °C -13.5 °C 34567.7 hPa NW 38.8 km/h 38.8 km/h 54 % 0 mm 954.0 W/m2 CLR
13:23 -8.2 °C -13.4 °C 34567.7 hPa NW 38.8 km/h 38.8 km/h 54 % 0 mm 967.0 W/m2 CLR
13:28 -8.2 °C -13.5 °C 34567.7 hPa NNW 41.7 km/h 41.7 km/h 53 % 0 mm 972.0 W/m2 CLR
13:33 -8.1 °C -13.3 °C 34567.7 hPa NW 41.7 km/h 41.7 km/h 54 % 0 mm 960.0 W/m2 CLR
13:38 -8.2 °C -13.5 °C 34567.7 hPa WNW 53.6 km/h 53.6 km/h 53 % 0 mm 972.0 W/m2 CLR
13:43 -8.2 °C -13.5 °C 34567.7 hPa West 38.8 km/h 38.8 km/h 53 % 0 mm 1048.0 W/m2 CLR
13:48 -8.1 °C -13.4 °C 34567.7 hPa NNW 32.8 km/h 32.8 km/h 53 % 0 mm 1063.0 W/m2 CLR
13:53 -8.2 °C -13.2 °C 34554.1 hPa NW 41.4 km/h 41.4 km/h 55 % 0 mm 1048.0 W/m2 CLR
13:58 -8.2 °C -13.6 °C 34567.7 hPa NW 41.7 km/h 41.7 km/h 53 % 0 mm 1005.0 W/m2 CLR
14:03 -7.9 °C -13.5 °C 34554.1 hPa WNW 41.7 km/h 41.7 km/h 52 % 0 mm 1051.0 W/m2 CLR
14:08 -7.9 °C -13.9 °C 34554.1 hPa WSW 29.8 km/h 29.8 km/h 49 % 0 mm 1136.0 W/m2 CLR
14:13 -8 °C -13.7 °C 34554.1 hPa NW 38.8 km/h 38.8 km/h 51 % 0 mm 995.0 W/m2 CLR
14:18 -7.9 °C -13.6 °C 34554.1 hPa NNW 51.8 km/h 51.8 km/h 51 % 0 mm 976.0 W/m2 CLR
14:23 -7.8 °C -13.8 °C 34554.1 hPa NNW 41.7 km/h 41.7 km/h 49 % 0 mm 965.0 W/m2 CLR
14:28 -7.7 °C -13.8 °C 34554.1 hPa NNW 32.8 km/h 32.8 km/h 49 % 0 mm 949.0 W/m2 CLR
14:29 -7.7 °C -13.6 °C 34554.1 hPa WNW 29.8 km/h 29.8 km/h 50 % 0 mm 951.0 W/m2 CLR
14:34 -7.6 °C -13.5 °C 34554.1 hPa NW 41.7 km/h 41.7 km/h 50 % 0 mm 949.0 W/m2 CLR
14:39 -7.6 °C -13.9 °C 34554.1 hPa West 33.6 km/h 33.6 km/h 47 % 0 mm 940.0 W/m2 CLR
14:44 -7.6 °C -14 °C 34554.1 hPa NNW 38.8 km/h 38.8 km/h 47 % 0 mm 940.0 W/m2 CLR
14:49 -7.6 °C -14.2 °C 34554.1 hPa North 26.9 km/h 26.9 km/h 46 % 0 mm 997.0 W/m2 CLR
14:54 -7.4 °C -13.8 °C 34544 hPa NNW 41.7 km/h 41.7 km/h 47 % 0 mm 933.0 W/m2 CLR
14:59 -7.3 °C -14.1 °C 34554.1 hPa NW 47.6 km/h 47.6 km/h 45 % 0 mm 923.0 W/m2 CLR
15:04 -7.3 °C -14.4 °C 34554.1 hPa NW 35.7 km/h 35.7 km/h 43 % 0 mm 925.0 W/m2 CLR
15:09 -7.3 °C -13.9 °C 34554.1 hPa NW 38.8 km/h 38.8 km/h 46 % 0 mm 918.0 W/m2 CLR
15:14 -7.1 °C -13.9 °C 34544 hPa NW 23.3 km/h 23.3 km/h 45 % 0 mm 932.0 W/m2 CLR
15:19 -7.1 °C -13.8 °C 34544 hPa NNE 26.9 km/h 26.9 km/h 45 % 0 mm 935.0 W/m2 CLR
15:24 -7 °C -14.2 °C 34554.1 hPa NW 59.5 km/h 59.5 km/h 43 % 0 mm 919.0 W/m2 CLR
15:29 -7.1 °C -13.9 °C 34554.1 hPa NW 32.8 km/h 32.8 km/h 45 % 0 mm 942.0 W/m2 CLR
15:34 -7.1 °C -14.1 °C 34554.1 hPa NNW 41.7 km/h 41.7 km/h 44 % 0 mm 898.0 W/m2 CLR
15:39 -7.1 °C -14.1 °C 34544 hPa WNW 36.2 km/h 36.2 km/h 44 % 0 mm 875.0 W/m2 CLR
15:44 -7.1 °C -14.2 °C 34544 hPa NNW 41.7 km/h 41.7 km/h 43 % 0 mm 889.0 W/m2 CLR
15:49 -7.1 °C -14 °C 34544 hPa NNW 29.8 km/h 29.8 km/h 44 % 0 mm 867.0 W/m2 CLR
15:54 -6.9 °C -14.1 °C 34544 hPa NNW 32.8 km/h 32.8 km/h 43 % 0 mm 854.0 W/m2 CLR
15:59 -6.8 °C -14 °C 34544 hPa NNW 47.6 km/h 47.6 km/h 43 % 0 mm 842.0 W/m2 CLR
16:04 -6.9 °C -14.3 °C 34544 hPa NNW 44.7 km/h 44.7 km/h 42 % 0 mm 830.0 W/m2 CLR
16:09 -6.9 °C -14.3 °C 34544 hPa North 29.8 km/h 29.8 km/h 42 % 0 mm 817.0 W/m2 CLR
16:14 -6.8 °C -14.2 °C 34533.8 hPa NNE 23.8 km/h 23.8 km/h 42 % 0 mm 807.0 W/m2 CLR
16:19 -6.7 °C -13.9 °C 34533.8 hPa NNE 32.8 km/h 32.8 km/h 43 % 0 mm 796.0 W/m2 CLR
16:24 -6.7 °C -13.7 °C 34533.8 hPa NNW 28.5 km/h 28.5 km/h 44 % 0 mm 786.0 W/m2 CLR
16:29 -6.7 °C -13.9 °C 34533.8 hPa North 29.8 km/h 29.8 km/h 43 % 0 mm 772.0 W/m2 CLR
16:34 -6.7 °C -13.9 °C 34533.8 hPa North 38.8 km/h 38.8 km/h 43 % 0 mm 761.0 W/m2 CLR
16:39 -6.8 °C -13.9 °C 34533.8 hPa North 38.8 km/h 38.8 km/h 43 % 0 mm 751.0 W/m2 CLR
16:44 -6.6 °C -13.8 °C 34533.8 hPa North 26.9 km/h 26.9 km/h 43 % 0 mm 749.0 W/m2 CLR
16:46 -6.6 °C -13.8 °C 34533.8 hPa North 35.7 km/h 35.7 km/h 43 % 0 mm 744.0 W/m2 CLR
16:51 -6.7 °C -13.9 °C 34533.8 hPa North 29.8 km/h 29.8 km/h 43 % 0 mm 719.0 W/m2 CLR
16:56 -6.6 °C -14.1 °C 34533.8 hPa WNW 32.8 km/h 32.8 km/h 42 % 0 mm 707.0 W/m2 CLR
17:01 -6.6 °C -14 °C 34533.8 hPa NNE 29.8 km/h 29.8 km/h 42 % 0 mm 698.0 W/m2 CLR
17:06 -6.7 °C -14.3 °C 34520.3 hPa NNE 38.8 km/h 38.8 km/h 41 % 0 mm 689.0 W/m2 CLR
17:11 -6.6 °C -13.8 °C 34520.3 hPa WNW 32.8 km/h 32.8 km/h 43 % 0 mm 673.0 W/m2 CLR
17:16 -6.6 °C -14.3 °C 34520.3 hPa NNW 20.9 km/h 20.9 km/h 40 % 0 mm 661.0 W/m2 CLR
17:21 -6.5 °C -14.1 °C 34520.3 hPa NNW 41.7 km/h 41.7 km/h 41 % 0 mm 642.0 W/m2 CLR
17:26 -6.7 °C -14.1 °C 34520.3 hPa North 23.8 km/h 23.8 km/h 42 % 0 mm 629.0 W/m2 CLR
17:31 -6.7 °C -14.4 °C 34520.3 hPa WNW 3.1 km/h   40 % 0 mm 615.0 W/m2 CLR
17:36 -6.4 °C -14.1 °C 34520.3 hPa North 44.7 km/h 44.7 km/h 41 % 0 mm 599.0 W/m2 CLR
17:41 -6.4 °C -14.2 °C 34520.3 hPa NNW 6 km/h   40 % 0 mm 587.0 W/m2 CLR
17:46 -6.3 °C -14 °C 34520.3 hPa NNW 23.8 km/h 23.8 km/h 41 % 0 mm 577.0 W/m2 CLR
17:51 -6.4 °C -14.2 °C 34520.3 hPa North 23.8 km/h 23.8 km/h 40 % 0 mm 564.0 W/m2 CLR
17:56 -6.5 °C -14.3 °C 34520.3 hPa NNW 33.6 km/h 33.6 km/h 40 % 0 mm 547.0 W/m2 CLR
18:01 -6.5 °C -14.3 °C 34520.3 hPa NNW 29.8 km/h 29.8 km/h 40 % 0 mm 527.0 W/m2 CLR
18:06 -6.6 °C -14.2 °C 34520.3 hPa North 38.8 km/h 38.8 km/h 41 % 0 mm 513.0 W/m2 CLR
18:11 -6.4 °C -14.2 °C 34520.3 hPa North 29.8 km/h 29.8 km/h 40 % 0 mm 499.0 W/m2 CLR
18:16 -6.4 °C -14 °C 34520.3 hPa North 26.9 km/h 26.9 km/h 41 % 0 mm 483.0 W/m2 CLR
18:21 -6.3 °C -14.1 °C 34520.3 hPa North 33.6 km/h 33.6 km/h 40 % 0 mm 461.0 W/m2 CLR
18:26 -6.5 °C -14.3 °C 34520.3 hPa North 35.7 km/h 35.7 km/h 40 % 0 mm 448.0 W/m2 CLR
18:31 -6.6 °C -14.1 °C 34520.3 hPa NNW 15 km/h   41 % 0 mm 436.0 W/m2 CLR
18:36 -6.4 °C -14.1 °C 34520.3 hPa NNW 23.8 km/h 23.8 km/h 41 % 0 mm 422.0 W/m2 CLR
18:41 -6.4 °C -14 °C 34520.3 hPa North 29.8 km/h 29.8 km/h 41 % 0 mm 406.0 W/m2 CLR
18:46 -6.4 °C -14.4 °C 34520.3 hPa North 29.8 km/h 29.8 km/h 39 % 0 mm 387.0 W/m2 CLR
18:51 -6.4 °C -14.3 °C 34520.3 hPa North 32.8 km/h 32.8 km/h 40 % 0 mm 371.0 W/m2 CLR
18:56 -6.5 °C -14.3 °C 34510.1 hPa NNW 29.8 km/h 29.8 km/h 40 % 0 mm 357.0 W/m2 CLR
19:01 -6.6 °C -14.3 °C 34510.1 hPa North 20.9 km/h 20.9 km/h 40 % 0 mm 339.0 W/m2 CLR
19:06 -6.4 °C -14.3 °C 34510.1 hPa NNW 32.8 km/h 32.8 km/h 40 % 0 mm 322.0 W/m2 CLR
19:11 -6.5 °C -14.3 °C 34520.3 hPa North 38.8 km/h 38.8 km/h 40 % 0 mm 306.0 W/m2 CLR
19:17 -6.5 °C -14.3 °C 34510.1 hPa NNW 23.8 km/h 23.8 km/h 40 % 0 mm 292.0 W/m2 CLR
19:21 -6.4 °C -14.3 °C 34520.3 hPa North 23.8 km/h 23.8 km/h 40 % 0 mm 276.0 W/m2 CLR
19:26 -6.4 °C -14.2 °C 34510.1 hPa NW 17.9 km/h   40 % 0 mm 262.0 W/m2 CLR
19:32 -6.4 °C -14.2 °C 34510.1 hPa NNW 29.8 km/h 29.8 km/h 40 % 0 mm 243.0 W/m2 CLR
19:37 -6.4 °C -14.3 °C 34510.1 hPa WNW 17.9 km/h 17.9 km/h 40 % 0 mm 225.0 W/m2 CLR
19:42 -6.5 °C -14.3 °C 34520.3 hPa North 29.8 km/h 29.8 km/h 40 % 0 mm 207.0 W/m2 CLR
19:47 -6.6 °C -14.4 °C 34520.3 hPa North 29.8 km/h 29.8 km/h 40 % 0 mm 186.0 W/m2 CLR
19:52 -6.7 °C -14.4 °C 34520.3 hPa North 23.3 km/h 23.3 km/h 40 % 0 mm 169.0 W/m2 CLR
19:57 -6.7 °C -14.5 °C 34520.3 hPa NNW 29.8 km/h 29.8 km/h 40 % 0 mm 153.0 W/m2 CLR
20:02 -6.8 °C -14.3 °C 34520.3 hPa North 29.8 km/h 29.8 km/h 41 % 0 mm 135.0 W/m2 CLR
20:07 -6.8 °C -14.3 °C 34520.3 hPa North 20.9 km/h 20.9 km/h 41 % 0 mm 118.0 W/m2 CLR
20:12 -6.8 °C -14.6 °C 34520.3 hPa North 20.9 km/h 20.9 km/h 40 % 0 mm 102.0 W/m2 CLR
20:17 -6.8 °C -14.4 °C 34533.8 hPa North 20.9 km/h 20.9 km/h 41 % 0 mm 86.0 W/m2 CLR
20:22 -6.8 °C -14.4 °C 34533.8 hPa WNW 3.1 km/h   41 % 0 mm 72.0 W/m2 FEW
20:27 -6.9 °C -14.3 °C 34533.8 hPa NNW 26.9 km/h 26.9 km/h 42 % 0 mm 62.0 W/m2 SCT
20:32 -7 °C -14.4 °C 34533.8 hPa NNW 20.9 km/h 20.9 km/h 42 % 0 mm 42.0 W/m2 BKN
20:37 -7.1 °C -14.4 °C 34533.8 hPa NNW 3.1 km/h   42 % 0 mm 35.0 W/m2 BKN
20:42 -7.2 °C -14.3 °C 34533.8 hPa North 26.9 km/h 26.9 km/h 43 % 0 mm 28.0 W/m2 BKN
20:47 -7.3 °C -14.4 °C 34533.8 hPa NNW 26.9 km/h 26.9 km/h 43 % 0 mm 21.0 W/m2 BKN
20:52 -7.4 °C -14.3 °C 34533.8 hPa NNW 6 km/h 6 km/h 44 % 0 mm 16.0 W/m2 BKN
20:57 -7.6 °C -14.3 °C 34544 hPa NNW 5.1 km/h 5.1 km/h 45 % 0 mm 12.0 W/m2 BKN
21:02 -7.7 °C -14.2 °C 34544 hPa Calm     46 % 0 mm 11.0 W/m2 BKN
21:07 -7.7 °C -14.3 °C 34544 hPa NNW 6 km/h 6 km/h 46 % 0 mm 9.0 W/m2 BKN
21:12 -7.8 °C -14.4 °C 34544 hPa NW 9 km/h 9 km/h 46 % 0 mm 5.0 W/m2 OVC
21:17 -7.9 °C -14.4 °C 34544 hPa NW 9 km/h 9 km/h 46 % 0 mm 0.0 W/m2 OVC
21:22 -8 °C -14.3 °C 34554.1 hPa Calm     47 % 0 mm 0.0 W/m2 OVC
21:27 -8.1 °C -14.3 °C 34554.1 hPa Calm     48 % 0 mm 0.0 W/m2 CLR
21:32 -8.3 °C -14.3 °C 34554.1 hPa Calm     49 % 0 mm 0.0 W/m2 CLR
21:37 -8.4 °C -14.2 °C 34554.1 hPa Calm     50 % 0 mm 0.0 W/m2 CLR
21:42 -8.6 °C -14.2 °C 34554.1 hPa NW 9 km/h 9 km/h 51 % 0 mm 0.0 W/m2 CLR
21:47 -8.7 °C -14.1 °C 34567.7 hPa NW 10.3 km/h 10.3 km/h 52 % 0 mm 0.0 W/m2 CLR
21:52 -8.7 °C -14.3 °C 34567.7 hPa NW 9 km/h 9 km/h 51 % 0 mm 0.0 W/m2 CLR
21:57 -8.7 °C -13.9 °C 34567.7 hPa NW 9 km/h 9 km/h 54 % 0 mm 0.0 W/m2 CLR
22:02 -9 °C -14.1 °C 34567.7 hPa WNW 9 km/h 9 km/h 54 % 0 mm 0.0 W/m2 CLR
22:07 -9.1 °C -14.1 °C 34567.7 hPa WNW 9 km/h 9 km/h 55 % 0 mm 0.0 W/m2 CLR
22:12 -9.2 °C -14.2 °C 34577.8 hPa WNW 6 km/h 6 km/h 55 % 0 mm 0.0 W/m2 CLR
22:17 -9.2 °C -14.1 °C 34577.8 hPa WNW 6 km/h 6 km/h 56 % 0 mm 0.0 W/m2 CLR
22:18 -9.2 °C -14.1 °C 34577.8 hPa WNW 6 km/h 6 km/h 56 % 0 mm 0.0 W/m2 CLR
22:23 -9.3 °C -14.1 °C 34577.8 hPa NW 9 km/h 9 km/h 57 % 0 mm 0.0 W/m2 CLR
22:28 -9.3 °C -14.2 °C 34591.4 hPa NW 9 km/h 9 km/h 56 % 0 mm 0.0 W/m2 CLR
22:33 -9.2 °C -14.1 °C 34591.4 hPa NW 6 km/h   56 % 0 mm 0.0 W/m2 CLR
22:43 -9.5 °C -13.9 °C 34591.4 hPa NW 9 km/h 9 km/h 59 % 0 mm 0.0 W/m2 CLR
22:48 -9.8 °C -14 °C 34591.4 hPa NW 9 km/h 9 km/h 60 % 0 mm 0.0 W/m2 CLR
22:53 -9.9 °C -14.1 °C 34591.4 hPa WNW 6 km/h 6 km/h 61 % 0 mm 0.0 W/m2 CLR
22:58 -10 °C -14.1 °C 34601.5 hPa WNW 6 km/h   61 % 0 mm 0.0 W/m2 CLR
23:03 -10.1 °C -13.9 °C 34601.5 hPa Calm     63 % 0 mm 0.0 W/m2 CLR
23:08 -10.2 °C -13.7 °C 34611.7 hPa Calm     65 % 0 mm 0.0 W/m2 CLR
23:13 -10.3 °C -13.8 °C 34611.7 hPa Calm     66 % 0 mm 0.0 W/m2 CLR
23:18 -10.4 °C -13.8 °C 34611.7 hPa Calm     67 % 0 mm 0.0 W/m2 CLR
23:23 -10.4 °C -13.7 °C 34611.7 hPa Calm     67 % 0 mm 0.0 W/m2 CLR
23:28 -10.5 °C -13.6 °C 34611.7 hPa Calm     69 % 0 mm 0.0 W/m2 CLR
23:33 -10.6 °C -13.7 °C 34611.7 hPa Calm     69 % 0 mm 0.0 W/m2 CLR
23:38 -10.8 °C -13.7 °C 34611.7 hPa Calm     70 % 0 mm 0.0 W/m2 CLR
23:43 -10.9 °C -13.8 °C 34611.7 hPa Calm     71 % 0 mm 0.0 W/m2 CLR
23:48 -11.1 °C -13.7 °C 34611.7 hPa Calm     73 % 0 mm 0.0 W/m2 CLR
23:53 -11.1 °C -13.7 °C 34611.7 hPa Calm     73 % 0 mm 0.0 W/m2 CLR
23:58 -11.1 °C -13.7 °C 34611.7 hPa Calm     73 % 0 mm 0.0 W/m2 CLR
Lo Temps de Massalio
Compliments of Weather Underground - 1.25 mb